Westboro, Ohio
Current Conditions -  °F | °C
As of 9:24 AM on Thursday 27 Nov 2014 (Local Time) from KILN Reporting Station
Light Snow Light Snow  
Wind Chill: 18°   Ceiling: 1500
Heat Index: 29°   Visibility: 3mi
Dew Point: 24°   Wind: 14mph
Humidity: 82%   Direction: 300°WNW
Pressure: 30.2"   Gusts: NA
Location:  39.2883°N, 83.8861°W
Report Text: KILN 271424Z AUTO 30012KT 3SM -SN OVC015 M02/M04 A3020 RMK AO2 UPB17E19SNB19 P0000 T10171044
Loading
Personal Weather Stations






























Interactive Weather Map New forecast layout! Learn more

10-Day Weather Forecast

Advertisements
Track Severe Weather on mobile